createdAt,value
2022-10-26T00:00:03.209Z,1007.93
2022-10-26T00:01:03.273Z,1007.87
2022-10-26T00:02:03.443Z,1007.91
2022-10-26T00:03:03.399Z,1007.83
2022-10-26T00:04:03.456Z,1007.82
2022-10-26T00:05:03.350Z,1007.80
2022-10-26T00:06:03.357Z,1007.79
2022-10-26T00:07:03.249Z,1007.80
2022-10-26T00:08:03.773Z,1007.83
2022-10-26T00:09:03.825Z,1007.83
2022-10-26T00:10:03.457Z,1007.82
2022-10-26T00:11:03.394Z,1007.85
2022-10-26T00:12:03.583Z,1007.84
2022-10-26T00:13:03.058Z,1007.84
2022-10-26T00:14:03.052Z,1007.86
2022-10-26T00:15:03.061Z,1007.86
2022-10-26T00:16:03.073Z,1007.85
2022-10-26T00:17:03.086Z,1007.84
2022-10-26T00:18:03.009Z,1007.83
2022-10-26T00:19:03.000Z,1007.80
2022-10-26T00:20:03.006Z,1007.88
2022-10-26T00:21:02.992Z,1007.88
2022-10-26T00:22:02.968Z,1007.82
2022-10-26T00:23:02.955Z,1007.85
2022-10-26T00:24:02.961Z,1007.86
2022-10-26T00:25:02.949Z,1007.84
2022-10-26T00:26:02.932Z,1007.84
2022-10-26T00:27:02.915Z,1007.81
2022-10-26T00:28:02.913Z,1007.81
2022-10-26T00:29:02.901Z,1007.82
2022-10-26T00:30:02.882Z,1007.81
2022-10-26T00:31:02.918Z,1007.83
2022-10-26T00:32:17.616Z,1007.83
2022-10-26T00:33:03.218Z,1007.81
2022-10-26T00:34:03.994Z,1007.80
2022-10-26T00:35:10.733Z,1007.78
2022-10-26T00:36:04.367Z,1007.83
2022-10-26T00:37:03.002Z,1007.82
2022-10-26T00:38:03.037Z,1007.78
2022-10-26T00:39:03.206Z,1007.78
2022-10-26T00:40:03.312Z,1007.78
2022-10-26T00:41:03.073Z,1007.77
2022-10-26T00:42:02.872Z,1007.76
2022-10-26T00:43:02.978Z,1007.79
2022-10-26T00:44:02.990Z,1007.83
2022-10-26T00:45:02.955Z,1007.84
2022-10-26T00:46:03.254Z,1007.84
2022-10-26T00:47:04.107Z,1007.82
2022-10-26T00:48:04.708Z,1007.84
2022-10-26T00:49:03.550Z,1007.81
2022-10-26T00:50:02.931Z,1007.82
2022-10-26T00:51:03.250Z,1007.81
2022-10-26T00:52:02.969Z,1007.76
2022-10-26T00:53:02.842Z,1007.78
2022-10-26T00:54:02.714Z,1007.76
2022-10-26T00:55:02.867Z,1007.75
2022-10-26T00:56:02.777Z,1007.76
2022-10-26T00:57:03.012Z,1007.70
2022-10-26T00:58:02.731Z,1007.68
2022-10-26T00:59:02.743Z,1007.70
2022-10-26T01:00:02.651Z,1007.71
2022-10-26T01:01:02.759Z,1007.67
2022-10-26T01:02:02.699Z,1007.66
2022-10-26T01:03:02.686Z,1007.65
2022-10-26T01:04:02.707Z,1007.64
2022-10-26T01:05:02.898Z,1007.66
2022-10-26T01:06:02.616Z,1007.67
2022-10-26T01:07:02.655Z,1007.68
2022-10-26T01:08:02.753Z,1007.66
2022-10-26T01:09:02.692Z,1007.63
2022-10-26T01:10:02.577Z,1007.61
2022-10-26T01:11:02.593Z,1007.58
2022-10-26T01:12:02.670Z,1007.57
2022-10-26T01:13:03.432Z,1007.60
2022-10-26T01:14:02.551Z,1007.60
2022-10-26T01:15:02.522Z,1007.65
2022-10-26T01:16:02.509Z,1007.64
2022-10-26T01:18:02.517Z,1007.60
2022-10-26T01:19:02.532Z,1007.60
2022-10-26T01:20:02.697Z,1007.58
2022-10-26T01:21:02.475Z,1007.62
2022-10-26T01:22:04.204Z,1007.60
2022-10-26T01:23:02.489Z,1007.65
2022-10-26T01:24:03.239Z,1007.57
2022-10-26T01:25:03.125Z,1007.55
2022-10-26T01:26:02.377Z,1007.58
2022-10-26T01:27:02.695Z,1007.57
2022-10-26T01:28:02.368Z,1007.58
2022-10-26T01:29:02.545Z,1007.58
2022-10-26T01:30:02.586Z,1007.54
2022-10-26T01:31:02.644Z,1007.57
2022-10-26T01:32:02.281Z,1007.56
2022-10-26T01:33:02.318Z,1007.56
2022-10-26T01:34:02.439Z,1007.56
2022-10-26T01:35:02.543Z,1007.54
2022-10-26T01:36:02.253Z,1007.50
2022-10-26T01:37:02.237Z,1007.51
2022-10-26T01:38:02.642Z,1007.50
2022-10-26T01:39:02.204Z,1007.47
2022-10-26T01:40:02.188Z,1007.45
2022-10-26T01:41:02.228Z,1007.39
2022-10-26T01:42:02.610Z,1007.37
2022-10-26T01:43:02.198Z,1007.37
2022-10-26T01:44:02.221Z,1007.35
2022-10-26T01:45:02.377Z,1007.34
2022-10-26T01:46:02.359Z,1007.34
2022-10-26T01:47:02.260Z,1007.39
2022-10-26T01:48:02.936Z,1007.36
2022-10-26T01:49:02.175Z,1007.33
2022-10-26T01:50:02.290Z,1007.34
2022-10-26T01:51:02.147Z,1007.32
2022-10-26T01:52:02.322Z,1007.30
2022-10-26T01:53:02.344Z,1007.31
2022-10-26T01:54:02.354Z,1007.28
2022-10-26T01:55:02.072Z,1007.28
2022-10-26T01:56:02.128Z,1007.27
2022-10-26T01:57:02.155Z,1007.25
2022-10-26T01:58:02.026Z,1007.25
2022-10-26T01:59:02.430Z,1007.28
2022-10-26T02:00:02.898Z,1007.25
2022-10-26T02:01:02.261Z,1007.20
2022-10-26T02:02:02.212Z,1007.23
2022-10-26T02:03:02.922Z,1007.20
2022-10-26T02:04:11.539Z,1007.18
2022-10-26T02:05:02.493Z,1007.23
2022-10-26T02:06:11.419Z,1007.20
2022-10-26T02:07:05.927Z,1007.19
2022-10-26T02:08:02.254Z,1007.17
2022-10-26T02:09:02.026Z,1007.19
2022-10-26T02:10:02.328Z,1007.22
2022-10-26T02:11:02.769Z,1007.20
2022-10-26T02:12:01.866Z,1007.16
2022-10-26T02:13:01.866Z,1007.14
2022-10-26T02:14:02.056Z,1007.11
2022-10-26T02:15:01.980Z,1007.17
2022-10-26T02:16:01.835Z,1007.07
2022-10-26T02:17:02.104Z,1007.11
2022-10-26T02:18:01.832Z,1007.08
2022-10-26T02:19:02.179Z,1007.06
2022-10-26T02:20:01.784Z,1007.06
2022-10-26T02:21:02.160Z,1007.04
2022-10-26T02:22:02.075Z,1007.00
2022-10-26T02:23:02.017Z,1007.01
2022-10-26T02:24:01.932Z,1007.04
2022-10-26T02:25:01.891Z,1007.02
2022-10-26T02:26:01.710Z,1006.98
2022-10-26T02:27:01.778Z,1006.98
2022-10-26T02:28:04.001Z,1006.96
2022-10-26T02:29:02.668Z,1006.92
2022-10-26T02:30:01.812Z,1006.98
2022-10-26T02:31:01.768Z,1006.91
2022-10-26T02:32:01.970Z,1006.91
2022-10-26T02:33:02.268Z,1006.91
2022-10-26T02:34:02.049Z,1006.89
2022-10-26T02:35:01.607Z,1006.91
2022-10-26T02:36:01.804Z,1006.89
2022-10-26T02:37:01.819Z,1006.87
2022-10-26T02:38:01.800Z,1006.89
2022-10-26T02:39:01.967Z,1006.86
2022-10-26T02:40:01.763Z,1006.88
2022-10-26T02:41:01.740Z,1006.82
2022-10-26T02:42:02.370Z,1006.84
2022-10-26T02:43:02.054Z,1006.79
2022-10-26T02:44:01.683Z,1006.78
2022-10-26T02:45:01.890Z,1006.77
2022-10-26T02:46:02.392Z,1006.76
2022-10-26T02:47:06.250Z,1006.77
2022-10-26T02:48:01.918Z,1006.77
2022-10-26T02:49:01.642Z,1006.76
2022-10-26T02:50:01.482Z,1006.75
2022-10-26T02:51:01.690Z,1006.80
2022-10-26T02:52:01.783Z,1006.75
2022-10-26T02:53:01.587Z,1006.82
2022-10-26T02:54:01.911Z,1006.80
2022-10-26T02:55:01.504Z,1006.86
2022-10-26T02:56:01.681Z,1006.84
2022-10-26T02:57:01.486Z,1006.86
2022-10-26T02:58:01.708Z,1006.82
2022-10-26T02:59:01.403Z,1006.84
2022-10-26T03:00:02.270Z,1006.82
2022-10-26T03:01:01.486Z,1006.77
2022-10-26T03:02:01.541Z,1006.80
2022-10-26T03:03:03.313Z,1006.76
2022-10-26T03:04:01.763Z,1006.75
2022-10-26T03:05:01.496Z,1006.72
2022-10-26T03:06:01.451Z,1006.75
2022-10-26T03:07:01.396Z,1006.73
2022-10-26T03:08:01.455Z,1006.74
2022-10-26T03:09:01.577Z,1006.72
2022-10-26T03:10:01.294Z,1006.72
2022-10-26T03:11:01.210Z,1006.68
2022-10-26T03:12:01.272Z,1006.73
2022-10-26T03:13:01.248Z,1006.67
2022-10-26T03:14:01.623Z,1006.68
2022-10-26T03:15:01.190Z,1006.63
2022-10-26T03:16:01.196Z,1006.64
2022-10-26T03:17:01.217Z,1006.64
2022-10-26T03:18:01.178Z,1006.66
2022-10-26T03:19:01.437Z,1006.67
2022-10-26T03:20:01.127Z,1006.68
2022-10-26T03:21:01.100Z,1006.67
2022-10-26T03:22:01.159Z,1006.70
2022-10-26T03:23:01.114Z,1006.68
2022-10-26T03:24:01.352Z,1006.71
2022-10-26T03:25:01.377Z,1006.67
2022-10-26T03:26:01.157Z,1006.63
2022-10-26T03:27:02.355Z,1006.65
2022-10-26T03:28:01.540Z,1006.62
2022-10-26T03:29:01.262Z,1006.64
2022-10-26T03:30:01.619Z,1006.64
2022-10-26T03:31:01.002Z,1006.63
2022-10-26T03:32:01.286Z,1006.66
2022-10-26T03:33:01.029Z,1006.66
2022-10-26T03:34:01.001Z,1006.64
2022-10-26T03:35:01.129Z,1006.64
2022-10-26T03:36:01.033Z,1006.62
2022-10-26T03:37:01.064Z,1006.65
2022-10-26T03:38:01.050Z,1006.61
2022-10-26T03:39:01.470Z,1006.62
2022-10-26T03:40:01.306Z,1006.60
2022-10-26T03:41:01.200Z,1006.58
2022-10-26T03:42:01.081Z,1006.61
2022-10-26T03:43:01.132Z,1006.60
2022-10-26T03:44:01.113Z,1006.57
2022-10-26T03:45:01.307Z,1006.62
2022-10-26T03:46:00.984Z,1006.61
2022-10-26T03:47:01.253Z,1006.63
2022-10-26T03:48:00.966Z,1006.58
2022-10-26T03:49:01.876Z,1006.60
2022-10-26T03:50:00.984Z,1006.59
2022-10-26T03:51:00.926Z,1006.61
2022-10-26T03:52:01.659Z,1006.60
2022-10-26T03:53:00.957Z,1006.58
2022-10-26T03:54:01.157Z,1006.58
2022-10-26T03:55:00.745Z,1006.58
2022-10-26T03:56:01.583Z,1006.62
2022-10-26T03:57:00.923Z,1006.61
2022-10-26T03:58:00.843Z,1006.58
2022-10-26T03:59:01.570Z,1006.61
2022-10-26T04:00:00.812Z,1006.56
2022-10-26T04:01:01.019Z,1006.57
2022-10-26T04:02:01.151Z,1006.54
2022-10-26T04:03:00.730Z,1006.57
2022-10-26T04:04:00.826Z,1006.56
2022-10-26T04:05:01.057Z,1006.58
2022-10-26T04:06:00.622Z,1006.57
2022-10-26T04:07:00.829Z,1006.57
2022-10-26T04:08:00.983Z,1006.58
2022-10-26T04:09:00.671Z,1006.54
2022-10-26T04:10:01.655Z,1006.57
2022-10-26T04:11:10.868Z,1006.57
2022-10-26T04:12:00.518Z,1006.60
2022-10-26T04:13:00.520Z,1006.62
2022-10-26T04:14:00.538Z,1006.65
2022-10-26T04:15:00.519Z,1006.63
2022-10-26T04:16:00.577Z,1006.63
2022-10-26T04:17:00.467Z,1006.63
2022-10-26T04:18:00.448Z,1006.68
2022-10-26T04:19:01.071Z,1006.67
2022-10-26T04:20:00.647Z,1006.69
2022-10-26T04:21:00.489Z,1006.72
2022-10-26T04:22:00.413Z,1006.71
2022-10-26T04:23:00.404Z,1006.68
2022-10-26T04:24:00.403Z,1006.69
2022-10-26T04:25:00.367Z,1006.65
2022-10-26T04:26:00.388Z,1006.65
2022-10-26T04:27:00.364Z,1006.66
2022-10-26T04:28:00.360Z,1006.64
2022-10-26T04:29:00.355Z,1006.66
2022-10-26T04:30:00.329Z,1006.65
2022-10-26T04:31:00.308Z,1006.63
2022-10-26T04:32:00.300Z,1006.61
2022-10-26T04:33:00.300Z,1006.59
2022-10-26T04:34:00.293Z,1006.61
2022-10-26T04:35:00.273Z,1006.57
2022-10-26T04:36:00.268Z,1006.55
2022-10-26T04:37:00.276Z,1006.54
2022-10-26T04:38:00.247Z,1006.58
2022-10-26T04:39:00.237Z,1006.55
2022-10-26T04:40:00.292Z,1006.56
2022-10-26T04:41:00.416Z,1006.56
2022-10-26T04:42:00.487Z,1006.56
2022-10-26T04:43:00.368Z,1006.54
2022-10-26T04:44:00.449Z,1006.51
2022-10-26T04:45:00.275Z,1006.52
2022-10-26T04:46:00.155Z,1006.54
2022-10-26T04:47:00.342Z,1006.52
2022-10-26T04:48:00.132Z,1006.54
2022-10-26T04:49:00.149Z,1006.57
2022-10-26T04:50:00.126Z,1006.52
2022-10-26T04:51:00.095Z,1006.55
2022-10-26T04:52:00.076Z,1006.53
2022-10-26T04:53:00.108Z,1006.48
2022-10-26T04:54:00.093Z,1006.51
2022-10-26T04:55:00.084Z,1006.51
2022-10-26T04:56:00.051Z,1006.53
2022-10-26T04:57:00.032Z,1006.50
2022-10-26T04:58:01.365Z,1006.51
2022-10-26T04:59:00.021Z,1006.49
2022-10-26T05:00:00.018Z,1006.55
2022-10-26T05:01:00.018Z,1006.55
2022-10-26T05:02:00.136Z,1006.54
2022-10-26T05:02:59.963Z,1006.53
2022-10-26T05:03:59.982Z,1006.50
2022-10-26T05:05:00.002Z,1006.50
2022-10-26T05:05:59.937Z,1006.51
2022-10-26T05:06:59.934Z,1006.48
2022-10-26T05:07:59.936Z,1006.49
2022-10-26T05:08:59.930Z,1006.48
2022-10-26T05:09:59.899Z,1006.50
2022-10-26T05:10:59.893Z,1006.51
2022-10-26T05:11:59.874Z,1006.50
2022-10-26T05:12:59.887Z,1006.48
2022-10-26T05:13:59.876Z,1006.48
2022-10-26T05:15:00.305Z,1006.49
2022-10-26T05:16:00.165Z,1006.47
2022-10-26T05:17:00.121Z,1006.49
2022-10-26T05:18:00.052Z,1006.50
2022-10-26T05:19:00.310Z,1006.46
2022-10-26T05:19:59.909Z,1006.50
2022-10-26T05:21:00.202Z,1006.51
2022-10-26T05:22:00.033Z,1006.50
2022-10-26T05:23:00.008Z,1006.51
2022-10-26T05:23:59.868Z,1006.49
2022-10-26T05:24:59.810Z,1006.50
2022-10-26T05:25:59.933Z,1006.50
2022-10-26T05:26:59.931Z,1006.52
2022-10-26T05:28:00.081Z,1006.52
2022-10-26T05:28:59.795Z,1006.49
2022-10-26T05:29:59.973Z,1006.47
2022-10-26T05:30:59.921Z,1006.49
2022-10-26T05:31:59.843Z,1006.53
2022-10-26T05:32:59.798Z,1006.50
2022-10-26T05:33:59.991Z,1006.46
2022-10-26T05:34:59.791Z,1006.50
2022-10-26T05:36:00.598Z,1006.51
2022-10-26T05:37:00.276Z,1006.50
2022-10-26T05:38:02.334Z,1006.53
2022-10-26T05:39:04.009Z,1006.55
2022-10-26T05:41:12.917Z,1006.56
2022-10-26T05:42:10.710Z,1006.55
2022-10-26T05:43:11.709Z,1006.57
2022-10-26T05:44:10.667Z,1006.59
2022-10-26T05:45:10.664Z,1006.60
2022-10-26T05:46:10.660Z,1006.57
2022-10-26T05:47:11.050Z,1006.60
2022-10-26T05:48:10.632Z,1006.61
2022-10-26T05:49:10.613Z,1006.58
2022-10-26T05:50:10.605Z,1006.58
2022-10-26T05:51:10.605Z,1006.60
2022-10-26T05:52:10.582Z,1006.63
2022-10-26T05:53:10.573Z,1006.67
2022-10-26T05:54:13.844Z,1006.64
2022-10-26T05:55:10.561Z,1006.65
2022-10-26T05:56:10.890Z,1006.67
2022-10-26T05:57:10.537Z,1006.67
2022-10-26T05:58:10.523Z,1006.69
2022-10-26T05:59:10.520Z,1006.67
2022-10-26T06:00:10.654Z,1006.68
2022-10-26T06:01:10.529Z,1006.67
2022-10-26T06:02:10.571Z,1006.70
2022-10-26T06:03:10.468Z,1006.67
2022-10-26T06:04:10.459Z,1006.70
2022-10-26T06:05:10.445Z,1006.76
2022-10-26T06:06:10.437Z,1006.72
2022-10-26T06:07:10.428Z,1006.75
2022-10-26T06:08:10.419Z,1006.73
2022-10-26T06:09:10.421Z,1006.80
2022-10-26T06:10:10.406Z,1006.77
2022-10-26T06:11:10.373Z,1006.79
2022-10-26T06:12:11.227Z,1006.80
2022-10-26T06:13:10.366Z,1006.83
2022-10-26T06:14:10.345Z,1006.84
2022-10-26T06:15:10.343Z,1006.87
2022-10-26T06:16:10.348Z,1006.89
2022-10-26T06:17:10.319Z,1006.93
2022-10-26T06:18:10.345Z,1006.88
2022-10-26T06:19:10.568Z,1006.86
2022-10-26T06:20:10.369Z,1006.86
2022-10-26T06:21:10.293Z,1006.85
2022-10-26T06:22:10.260Z,1006.88
2022-10-26T06:23:10.255Z,1006.90
2022-10-26T06:24:10.247Z,1006.89
2022-10-26T06:25:10.238Z,1006.90
2022-10-26T06:26:10.209Z,1006.91
2022-10-26T06:27:10.210Z,1006.92
2022-10-26T06:28:10.211Z,1006.95
2022-10-26T06:29:10.198Z,1006.98
2022-10-26T06:30:10.191Z,1006.96
2022-10-26T06:31:10.165Z,1006.94
2022-10-26T06:32:10.161Z,1006.93
2022-10-26T06:33:18.488Z,1006.94
2022-10-26T06:34:11.146Z,1006.91
2022-10-26T06:35:10.134Z,1006.86
2022-10-26T06:36:10.119Z,1006.93
2022-10-26T06:37:10.112Z,1006.91
2022-10-26T06:38:10.092Z,1006.91
2022-10-26T06:39:10.088Z,1006.94
2022-10-26T06:40:10.064Z,1006.94
2022-10-26T06:41:10.093Z,1006.96
2022-10-26T06:42:10.051Z,1006.97
2022-10-26T06:43:10.056Z,1006.97
2022-10-26T06:44:10.040Z,1007.05
2022-10-26T06:45:10.080Z,1007.10
2022-10-26T06:46:10.010Z,1007.07
2022-10-26T06:47:09.992Z,1007.05
2022-10-26T06:48:09.988Z,1007.06
2022-10-26T06:49:10.170Z,1007.03
2022-10-26T06:50:09.972Z,1007.08
2022-10-26T06:51:09.957Z,1007.04
2022-10-26T06:52:09.937Z,1007.07
2022-10-26T06:53:09.934Z,1007.12
2022-10-26T06:54:09.920Z,1007.09
2022-10-26T06:55:09.901Z,1007.07
2022-10-26T06:56:09.902Z,1007.12
2022-10-26T06:57:09.889Z,1007.13
2022-10-26T06:58:09.889Z,1007.13
2022-10-26T06:59:09.881Z,1007.12
2022-10-26T07:00:09.962Z,1007.14
2022-10-26T07:01:09.905Z,1007.11
2022-10-26T07:02:09.910Z,1007.07
2022-10-26T07:03:09.835Z,1007.09
2022-10-26T07:04:09.816Z,1007.12
2022-10-26T07:05:09.827Z,1007.11
2022-10-26T07:06:10.061Z,1007.12
2022-10-26T07:07:09.809Z,1007.13
2022-10-26T07:08:09.760Z,1007.18
2022-10-26T07:09:10.014Z,1007.15
2022-10-26T07:10:09.738Z,1007.18
2022-10-26T07:11:09.746Z,1007.15
2022-10-26T07:12:09.805Z,1007.15
2022-10-26T07:13:09.710Z,1007.17
2022-10-26T07:14:10.257Z,1007.15
2022-10-26T07:16:09.689Z,1007.18
2022-10-26T07:17:09.695Z,1007.21
2022-10-26T07:18:09.657Z,1007.16
2022-10-26T07:19:09.652Z,1007.17
2022-10-26T07:20:09.845Z,1007.18
2022-10-26T07:21:09.701Z,1007.20
2022-10-26T07:22:09.624Z,1007.21
2022-10-26T07:23:09.609Z,1007.22
2022-10-26T07:24:09.598Z,1007.20
2022-10-26T07:25:09.740Z,1007.21
2022-10-26T07:26:09.628Z,1007.22
2022-10-26T07:27:09.697Z,1007.22
2022-10-26T07:28:09.548Z,1007.21
2022-10-26T07:29:09.550Z,1007.19
2022-10-26T07:30:09.545Z,1007.16
2022-10-26T07:31:09.522Z,1007.19
2022-10-26T07:32:09.607Z,1007.21
2022-10-26T07:33:09.508Z,1007.21
2022-10-26T07:34:09.484Z,1007.22
2022-10-26T07:35:09.644Z,1007.23
2022-10-26T07:36:09.472Z,1007.23
2022-10-26T07:37:09.463Z,1007.28
2022-10-26T07:38:09.438Z,1007.22
2022-10-26T07:39:09.429Z,1007.20
2022-10-26T07:40:09.456Z,1007.22
2022-10-26T07:41:09.405Z,1007.23
2022-10-26T07:42:09.398Z,1007.22
2022-10-26T07:43:09.373Z,1007.27
2022-10-26T07:44:09.385Z,1007.24
2022-10-26T07:45:09.367Z,1007.23
2022-10-26T07:46:09.441Z,1007.20
2022-10-26T07:47:09.585Z,1007.23
2022-10-26T07:48:09.330Z,1007.22
2022-10-26T07:49:09.340Z,1007.21
2022-10-26T07:50:09.291Z,1007.19
2022-10-26T07:51:09.488Z,1007.23
2022-10-26T07:52:09.311Z,1007.19
2022-10-26T07:53:09.284Z,1007.17
2022-10-26T07:54:09.450Z,1007.14
2022-10-26T07:55:09.297Z,1007.14
2022-10-26T07:56:09.431Z,1007.13
2022-10-26T07:57:09.267Z,1007.09
2022-10-26T07:58:09.237Z,1007.11
2022-10-26T07:59:09.226Z,1007.13
2022-10-26T08:00:09.290Z,1007.11
2022-10-26T08:01:09.359Z,1007.11
2022-10-26T08:02:09.260Z,1007.11
2022-10-26T08:03:09.181Z,1007.13
2022-10-26T08:04:09.172Z,1007.11
2022-10-26T08:05:09.143Z,1007.12
2022-10-26T08:06:09.175Z,1007.16
2022-10-26T08:07:09.161Z,1007.12
2022-10-26T08:08:09.197Z,1007.15
2022-10-26T08:09:09.114Z,1007.15
2022-10-26T08:10:09.089Z,1007.14
2022-10-26T08:11:09.152Z,1007.16
2022-10-26T08:12:09.081Z,1007.16
2022-10-26T08:13:09.082Z,1007.12
2022-10-26T08:14:09.053Z,1007.12
2022-10-26T08:15:09.048Z,1007.15
2022-10-26T08:16:09.015Z,1007.17
2022-10-26T08:17:09.032Z,1007.16
2022-10-26T08:18:09.015Z,1007.15
2022-10-26T08:19:09.008Z,1007.09
2022-10-26T08:20:09.030Z,1007.10
2022-10-26T08:21:11.316Z,1007.05
2022-10-26T08:22:09.063Z,1007.09
2022-10-26T08:23:08.963Z,1007.02
2022-10-26T08:24:08.945Z,1007.06
2022-10-26T08:25:09.044Z,1007.01
2022-10-26T08:26:09.042Z,1007.05
2022-10-26T08:27:08.906Z,1007.07
2022-10-26T08:28:08.873Z,1007.09
2022-10-26T08:29:08.900Z,1007.09
2022-10-26T08:30:09.057Z,1007.11
2022-10-26T08:31:09.053Z,1007.10
2022-10-26T08:32:08.932Z,1007.08
2022-10-26T08:33:08.839Z,1007.02
2022-10-26T08:34:08.819Z,1006.98
2022-10-26T08:35:08.816Z,1007.02
2022-10-26T08:36:08.807Z,1006.94
2022-10-26T08:37:08.797Z,1006.95
2022-10-26T08:38:08.910Z,1006.89
2022-10-26T08:39:08.772Z,1006.94
2022-10-26T08:40:08.777Z,1006.96
2022-10-26T08:41:08.949Z,1006.98
2022-10-26T08:42:08.744Z,1006.95
2022-10-26T08:43:08.736Z,1006.96
2022-10-26T08:44:08.720Z,1006.95
2022-10-26T08:45:08.722Z,1006.94
2022-10-26T08:46:08.699Z,1007.00
2022-10-26T08:47:08.716Z,1006.93
2022-10-26T08:48:08.692Z,1006.91
2022-10-26T08:49:08.662Z,1006.89
2022-10-26T08:50:08.663Z,1006.87
2022-10-26T08:51:08.652Z,1006.87
2022-10-26T08:52:08.636Z,1006.88
2022-10-26T08:53:08.698Z,1006.93
2022-10-26T08:54:08.637Z,1006.88
2022-10-26T08:55:08.613Z,1006.90
2022-10-26T08:56:08.583Z,1006.91
2022-10-26T08:57:08.596Z,1006.95
2022-10-26T08:58:08.578Z,1006.94
2022-10-26T08:59:08.548Z,1006.91
2022-10-26T09:00:08.532Z,1006.91
2022-10-26T09:01:09.566Z,1006.97
2022-10-26T09:02:08.531Z,1006.91
2022-10-26T09:03:08.518Z,1006.87
2022-10-26T09:04:08.513Z,1006.91
2022-10-26T09:05:08.500Z,1006.86
2022-10-26T09:06:08.480Z,1006.95
2022-10-26T09:07:08.472Z,1006.92
2022-10-26T09:08:08.510Z,1006.97
2022-10-26T09:09:08.455Z,1006.93
2022-10-26T09:10:08.440Z,1006.96
2022-10-26T09:11:08.430Z,1006.93
2022-10-26T09:12:08.412Z,1006.91
2022-10-26T09:13:08.423Z,1006.94
2022-10-26T09:14:08.419Z,1006.92
2022-10-26T09:15:08.382Z,1006.93
2022-10-26T09:16:08.372Z,1006.97
2022-10-26T09:17:08.368Z,1006.92
2022-10-26T09:18:08.360Z,1006.88
2022-10-26T09:19:08.341Z,1006.88
2022-10-26T09:20:08.332Z,1006.88
2022-10-26T09:21:08.309Z,1006.83
2022-10-26T09:22:08.303Z,1006.86
2022-10-26T09:23:08.299Z,1006.79
2022-10-26T09:24:08.310Z,1006.80
2022-10-26T09:25:08.271Z,1006.79
2022-10-26T09:26:08.284Z,1006.82
2022-10-26T09:27:08.268Z,1006.80
2022-10-26T09:28:08.250Z,1006.85
2022-10-26T09:29:08.230Z,1006.77
2022-10-26T09:30:08.237Z,1006.79
2022-10-26T09:31:08.203Z,1006.78
2022-10-26T09:32:08.215Z,1006.77
2022-10-26T09:33:08.221Z,1006.71
2022-10-26T09:34:08.184Z,1006.73
2022-10-26T09:35:08.167Z,1006.74
2022-10-26T09:36:11.837Z,1006.71
2022-10-26T09:37:09.143Z,1006.74
2022-10-26T09:38:08.133Z,1006.71
2022-10-26T09:39:08.122Z,1006.72
2022-10-26T09:40:08.099Z,1006.68
2022-10-26T09:41:08.088Z,1006.66
2022-10-26T09:42:08.091Z,1006.67
2022-10-26T09:43:08.062Z,1006.66
2022-10-26T09:44:08.058Z,1006.67
2022-10-26T09:45:08.075Z,1006.70
2022-10-26T09:46:08.075Z,1006.70
2022-10-26T09:47:08.021Z,1006.67
2022-10-26T09:48:08.012Z,1006.68
2022-10-26T09:49:07.995Z,1006.73
2022-10-26T09:50:08.003Z,1006.74
2022-10-26T09:51:07.985Z,1006.69
2022-10-26T09:52:08.270Z,1006.74
2022-10-26T09:53:07.952Z,1006.68
2022-10-26T09:54:07.938Z,1006.71
2022-10-26T09:55:08.116Z,1006.68
2022-10-26T09:56:07.925Z,1006.73
2022-10-26T09:57:07.912Z,1006.70
2022-10-26T09:58:08.019Z,1006.71
2022-10-26T09:59:07.915Z,1006.66
2022-10-26T10:00:07.885Z,1006.65
2022-10-26T10:01:07.890Z,1006.64
2022-10-26T10:02:07.882Z,1006.63
2022-10-26T10:03:07.903Z,1006.60
2022-10-26T10:04:07.840Z,1006.62
2022-10-26T10:05:07.825Z,1006.63
2022-10-26T10:06:07.826Z,1006.65
2022-10-26T10:07:07.798Z,1006.68
2022-10-26T10:08:07.798Z,1006.70
2022-10-26T10:09:07.805Z,1006.77
2022-10-26T10:10:07.797Z,1006.75
2022-10-26T10:11:07.759Z,1006.79
2022-10-26T10:12:07.753Z,1006.72
2022-10-26T10:13:07.735Z,1006.76
2022-10-26T10:14:07.727Z,1006.79
2022-10-26T10:15:07.706Z,1006.80
2022-10-26T10:16:07.719Z,1006.76
2022-10-26T10:17:07.769Z,1006.78
2022-10-26T10:18:07.689Z,1006.79
2022-10-26T10:19:07.675Z,1006.83
2022-10-26T10:20:07.671Z,1006.79
2022-10-26T10:21:07.830Z,1006.87
2022-10-26T10:22:07.650Z,1006.83
2022-10-26T10:23:07.635Z,1006.84
2022-10-26T10:24:07.616Z,1006.80
2022-10-26T10:25:07.607Z,1006.84
2022-10-26T10:26:08.586Z,1006.87
2022-10-26T10:27:07.591Z,1006.89
2022-10-26T10:28:07.585Z,1006.88
2022-10-26T10:29:07.557Z,1006.87
2022-10-26T10:30:07.558Z,1006.91
2022-10-26T10:31:07.599Z,1006.91
2022-10-26T10:32:07.519Z,1006.90
2022-10-26T10:33:07.505Z,1006.93
2022-10-26T10:34:07.502Z,1006.96
2022-10-26T10:35:07.488Z,1006.99
2022-10-26T10:36:07.681Z,1007.03
2022-10-26T10:37:07.485Z,1006.99
2022-10-26T10:38:07.471Z,1006.97
2022-10-26T10:39:07.452Z,1007.04
2022-10-26T10:40:07.448Z,1007.02
2022-10-26T10:41:07.430Z,1007.01
2022-10-26T10:42:07.421Z,1007.05
2022-10-26T10:43:07.422Z,1007.07
2022-10-26T10:44:07.406Z,1007.06
2022-10-26T10:45:07.394Z,1007.02
2022-10-26T10:46:07.386Z,1007.07
2022-10-26T10:47:07.377Z,1007.03
2022-10-26T10:48:07.338Z,1006.97
2022-10-26T10:49:07.345Z,1006.99
2022-10-26T10:50:07.334Z,1006.99
2022-10-26T10:51:07.330Z,1007.01
2022-10-26T10:52:07.326Z,1007.07
2022-10-26T10:53:07.288Z,1007.05
2022-10-26T10:54:07.291Z,1007.09
2022-10-26T10:55:07.270Z,1007.04
2022-10-26T10:56:10.676Z,1007.02
2022-10-26T10:57:07.459Z,1007.07
2022-10-26T10:58:07.249Z,1007.14
2022-10-26T10:59:07.244Z,1007.05
2022-10-26T11:00:07.231Z,1007.06
2022-10-26T11:01:07.266Z,1007.08
2022-10-26T11:02:07.765Z,1007.05
2022-10-26T11:03:07.214Z,1007.01
2022-10-26T11:04:07.215Z,1007.00
2022-10-26T11:05:07.154Z,1007.02
2022-10-26T11:06:07.450Z,1007.03
2022-10-26T11:07:07.261Z,1007.02
2022-10-26T11:08:07.154Z,1006.89
2022-10-26T11:09:07.146Z,1006.97
2022-10-26T11:10:07.143Z,1006.91
2022-10-26T11:11:07.115Z,1006.95
2022-10-26T11:12:07.290Z,1006.95
2022-10-26T11:13:07.090Z,1006.97
2022-10-26T11:14:07.081Z,1007.03
2022-10-26T11:15:07.062Z,1006.82
2022-10-26T11:16:07.068Z,1007.01
2022-10-26T11:17:07.051Z,1007.10
2022-10-26T11:18:07.036Z,1007.05
2022-10-26T11:19:07.037Z,1006.99
2022-10-26T11:20:10.052Z,1007.02
2022-10-26T11:21:08.002Z,1007.01
2022-10-26T11:22:07.013Z,1006.98
2022-10-26T11:23:07.030Z,1007.04
2022-10-26T11:24:06.976Z,1006.99
2022-10-26T11:25:06.969Z,1006.94
2022-10-26T11:26:06.955Z,1006.92
2022-10-26T11:27:06.966Z,1006.95
2022-10-26T11:28:06.941Z,1006.86
2022-10-26T11:29:06.955Z,1006.84
2022-10-26T11:30:06.919Z,1006.87
2022-10-26T11:31:06.915Z,1006.84
2022-10-26T11:32:06.892Z,1006.87
2022-10-26T11:33:06.883Z,1006.87
2022-10-26T11:34:06.898Z,1006.93
2022-10-26T11:35:06.865Z,1006.89
2022-10-26T11:36:06.858Z,1006.90
2022-10-26T11:37:06.843Z,1006.90
2022-10-26T11:38:06.837Z,1006.96
2022-10-26T11:39:06.829Z,1006.94
2022-10-26T11:40:06.817Z,1006.93
2022-10-26T11:41:06.793Z,1006.90
2022-10-26T11:42:06.804Z,1006.95
2022-10-26T11:43:06.784Z,1006.94
2022-10-26T11:44:06.769Z,1006.99
2022-10-26T11:45:06.760Z,1006.95
2022-10-26T11:46:06.763Z,1006.94
2022-10-26T11:47:06.732Z,1006.99
2022-10-26T11:48:06.728Z,1006.97
2022-10-26T11:49:06.720Z,1006.92
2022-10-26T11:50:06.716Z,1006.90
2022-10-26T11:51:06.692Z,1006.88
2022-10-26T11:52:06.693Z,1006.86
2022-10-26T11:53:06.685Z,1006.81
2022-10-26T11:54:06.661Z,1006.83
2022-10-26T11:55:06.656Z,1006.86
2022-10-26T11:56:06.652Z,1006.86
2022-10-26T11:57:06.628Z,1006.85
2022-10-26T11:58:06.735Z,1006.82
2022-10-26T11:59:06.617Z,1006.83
2022-10-26T12:00:06.605Z,1006.82
2022-10-26T12:01:06.619Z,1006.76
2022-10-26T12:02:06.585Z,1006.77
2022-10-26T12:03:06.571Z,1006.77
2022-10-26T12:04:06.576Z,1006.79
2022-10-26T12:05:06.548Z,1006.78
2022-10-26T12:06:06.537Z,1006.79
2022-10-26T12:07:06.530Z,1006.76
2022-10-26T12:08:06.522Z,1006.73